createdAt,value
2019-04-29T00:01:17.164Z,4.80
2019-04-29T00:04:11.246Z,4.92
2019-04-29T00:07:05.063Z,2.55
2019-04-29T00:09:58.126Z,4.37
2019-04-29T00:12:51.948Z,2.52
2019-04-29T00:15:59.339Z,4.95
2019-04-29T00:19:06.727Z,2.47
2019-04-29T00:21:52.282Z,4.72
2019-04-29T00:24:39.914Z,2.62
2019-04-29T00:27:33.095Z,4.25
2019-04-29T00:30:29.224Z,4.87
2019-04-29T00:33:22.280Z,4.90
2019-04-29T00:36:18.158Z,4.95
2019-04-29T00:42:46.248Z,3.62
2019-04-29T00:45:41.094Z,3.10
2019-04-29T00:48:35.176Z,2.22
2019-04-29T00:51:27.981Z,2.10
2019-04-29T00:54:25.384Z,1.80
2019-04-29T00:57:18.439Z,1.90
2019-04-29T01:00:11.749Z,2.15
2019-04-29T01:03:04.814Z,2.70
2019-04-29T01:05:58.380Z,2.20
2019-04-29T01:08:51.699Z,4.28
2019-04-29T01:11:44.746Z,4.35
2019-04-29T01:14:37.800Z,3.80
2019-04-29T01:17:27.283Z,4.00
2019-04-29T01:20:20.605Z,4.42
2019-04-29T01:23:13.392Z,4.05
2019-04-29T01:26:08.747Z,4.92
2019-04-29T01:29:05.130Z,5.08
2019-04-29T01:31:58.195Z,4.55
2019-04-29T01:35:03.015Z,3.50
2019-04-29T01:38:04.782Z,2.20
2019-04-29T01:41:02.955Z,4.70
2019-04-29T01:44:11.116Z,4.65
2019-04-29T01:47:04.172Z,5.10
2019-04-29T01:49:57.483Z,4.55
2019-04-29T01:52:51.050Z,4.17
2019-04-29T01:55:40.658Z,4.85
2019-04-29T01:58:34.856Z,4.62
2019-04-29T02:01:30.739Z,4.80
2019-04-29T02:04:19.948Z,2.22
2019-04-29T02:07:13.514Z,4.42
2019-04-29T02:10:17.329Z,4.85
2019-04-29T02:13:10.383Z,4.20
2019-04-29T02:15:59.607Z,4.37
2019-04-29T02:18:53.677Z,4.03
2019-04-29T02:21:47.021Z,4.78
2019-04-29T02:24:40.122Z,3.77
2019-04-29T02:27:33.101Z,3.95
2019-04-29T02:30:26.408Z,4.00
2019-04-29T02:33:31.003Z,3.87
2019-04-29T02:36:24.050Z,2.60
2019-04-29T02:39:31.437Z,4.25
2019-04-29T02:42:35.751Z,3.37
2019-04-29T02:45:35.212Z,4.50
2019-04-29T02:48:34.240Z,2.33
2019-04-29T02:51:22.866Z,2.10
2019-04-29T02:54:16.168Z,4.40
2019-04-29T02:57:20.744Z,4.50
2019-04-29T03:00:19.227Z,3.00
2019-04-29T03:03:23.497Z,2.40
2019-04-29T03:06:17.069Z,2.77
2019-04-29T03:09:09.865Z,4.75
2019-04-29T03:12:03.185Z,4.20
2019-04-29T03:14:56.519Z,4.37
2019-04-29T03:17:49.557Z,3.65
2019-04-29T03:21:12.042Z,3.90
2019-04-29T03:24:05.106Z,3.52
2019-04-29T03:26:58.420Z,2.30
2019-04-29T03:29:51.468Z,1.95
2019-04-29T03:32:44.266Z,2.95
2019-04-29T03:35:37.072Z,3.37
2019-04-29T03:38:32.936Z,3.60
2019-04-29T03:41:28.050Z,3.10
2019-04-29T03:44:21.100Z,2.77
2019-04-29T03:47:18.224Z,3.12
2019-04-29T03:50:06.701Z,3.50
2019-04-29T03:52:59.752Z,3.72
2019-04-29T03:55:52.551Z,4.10
2019-04-29T03:58:45.609Z,3.98
2019-04-29T04:01:48.409Z,4.50
2019-04-29T04:04:51.182Z,3.00
2019-04-29T04:07:55.497Z,3.42
2019-04-29T04:10:44.618Z,4.10
2019-04-29T04:13:37.516Z,4.60
2019-04-29T04:16:39.276Z,3.58
2019-04-29T04:19:32.329Z,3.95
2019-04-29T04:22:25.386Z,3.60
2019-04-29T04:25:14.525Z,4.40
2019-04-29T04:28:07.414Z,4.40
2019-04-29T04:31:00.203Z,3.87
2019-04-29T04:33:52.999Z,4.90
2019-04-29T04:36:45.806Z,2.87
2019-04-29T04:39:38.857Z,2.33
2019-04-29T04:42:31.917Z,3.52
2019-04-29T04:45:25.992Z,2.10
2019-04-29T04:48:19.050Z,5.00
2019-04-29T04:51:12.104Z,5.10
2019-04-29T04:54:05.938Z,3.95
2019-04-29T04:56:58.737Z,3.70
2019-04-29T04:59:51.527Z,4.10
2019-04-29T05:02:44.327Z,4.20
2019-04-29T05:05:38.151Z,4.80
2019-04-29T05:08:30.954Z,2.10
2019-04-29T05:11:23.751Z,4.20
2019-04-29T05:14:17.576Z,4.20
2019-04-29T05:17:10.644Z,4.60
2019-04-29T05:20:03.436Z,4.72
2019-04-29T05:22:58.279Z,3.95
2019-04-29T05:25:54.408Z,3.02
2019-04-29T05:28:47.463Z,2.65
2019-04-29T05:31:40.519Z,3.15
2019-04-29T05:34:33.317Z,3.85
2019-04-29T05:37:49.414Z,3.05
2019-04-29T05:40:52.711Z,3.98
2019-04-29T05:43:53.446Z,4.12
2019-04-29T05:46:57.767Z,3.42
2019-04-29T05:50:00.040Z,2.35
2019-04-29T05:53:11.461Z,2.15
2019-04-29T05:55:59.977Z,2.20
2019-04-29T05:58:52.774Z,1.42
2019-04-29T06:01:47.137Z,1.62
2019-04-29T06:04:41.704Z,1.72
2019-04-29T06:07:35.527Z,1.87
2019-04-29T06:10:28.584Z,1.67
2019-04-29T06:13:21.640Z,2.47
2019-04-29T06:16:15.938Z,1.72
2019-04-29T06:19:07.752Z,1.62
2019-04-29T06:22:03.800Z,2.08
2019-04-29T06:24:56.167Z,1.95
2019-04-29T06:27:52.298Z,2.40
2019-04-29T06:30:50.137Z,2.40
2019-04-29T06:33:40.710Z,2.20
2019-04-29T06:36:34.293Z,2.50
2019-04-29T06:39:28.360Z,3.77
2019-04-29T06:42:21.415Z,2.83
2019-04-29T06:45:14.475Z,3.83
2019-04-29T06:48:07.543Z,3.98
2019-04-29T06:51:01.109Z,3.90
2019-04-29T06:53:55.183Z,4.97
2019-04-29T06:56:48.241Z,2.22
2019-04-29T06:59:42.944Z,4.87
2019-04-29T07:02:34.600Z,2.10
2019-04-29T07:05:27.915Z,5.33
2019-04-29T07:08:21.222Z,3.12
2019-04-29T07:11:14.040Z,2.10
2019-04-29T07:14:07.083Z,5.60
2019-04-29T07:17:05.003Z,5.75
2019-04-29T07:19:57.555Z,2.37
2019-04-29T07:22:47.783Z,2.25
2019-04-29T07:25:41.865Z,3.12
2019-04-29T07:28:34.667Z,3.05
2019-04-29T07:31:28.314Z,4.28
2019-04-29T07:34:17.106Z,4.12
2019-04-29T07:37:10.502Z,3.77
2019-04-29T07:40:07.900Z,3.47
2019-04-29T07:42:56.875Z,5.85
2019-04-29T07:46:07.080Z,4.00
2019-04-29T07:49:02.018Z,4.50
2019-04-29T07:51:54.986Z,8.00
2019-04-29T07:54:54.898Z,5.65
2019-04-29T07:57:41.874Z,5.22
2019-04-29T08:00:32.105Z,7.42
2019-04-29T08:03:33.354Z,6.90
2019-04-29T08:06:26.666Z,5.30
2019-04-29T08:09:20.488Z,4.92
2019-04-29T08:12:13.804Z,7.97
2019-04-29T08:15:07.797Z,4.47
2019-04-29T08:18:05.975Z,5.55
2019-04-29T08:20:46.826Z,4.95
2019-04-29T08:23:42.226Z,7.22
2019-04-29T08:26:33.609Z,6.30
2019-04-29T08:29:26.509Z,8.20
2019-04-29T08:32:19.569Z,8.03
2019-04-29T08:35:12.620Z,7.58
2019-04-29T08:38:05.678Z,5.83
2019-04-29T08:40:58.990Z,6.08
2019-04-29T08:44:15.637Z,3.90
2019-04-29T08:47:07.630Z,3.35
2019-04-29T08:50:00.680Z,4.30
2019-04-29T08:52:53.991Z,5.15
2019-04-29T08:55:41.806Z,7.92
2019-04-29T08:58:34.737Z,3.40
2019-04-29T09:01:29.427Z,3.27
2019-04-29T09:04:20.840Z,6.00
2019-04-29T09:07:17.545Z,7.83
2019-04-29T09:10:07.988Z,7.00
2019-04-29T09:13:01.296Z,7.20
2019-04-29T09:15:55.114Z,2.98
2019-04-29T09:18:48.171Z,4.22
2019-04-29T09:21:37.612Z,3.20
2019-04-29T09:24:30.439Z,3.47
2019-04-29T09:27:26.828Z,3.52
2019-04-29T09:30:15.787Z,4.75
2019-04-29T09:33:12.968Z,3.90
2019-04-29T09:35:56.010Z,2.85
2019-04-29T09:38:49.075Z,6.03
2019-04-29T09:41:56.463Z,5.72
2019-04-29T09:44:59.241Z,5.28
2019-04-29T09:47:48.534Z,3.58
2019-04-29T09:50:42.026Z,3.67
2019-04-29T09:53:36.104Z,3.75
2019-04-29T09:56:29.212Z,3.02
2019-04-29T09:59:39.111Z,4.25
2019-04-29T10:03:02.750Z,2.75
2019-04-29T10:06:06.443Z,4.85
2019-04-29T10:08:59.759Z,3.98
2019-04-29T10:11:53.070Z,6.03
2019-04-29T10:14:46.639Z,3.58
2019-04-29T10:18:01.513Z,3.05
2019-04-29T10:21:04.750Z,3.75
2019-04-29T10:23:57.547Z,3.40
2019-04-29T10:26:50.604Z,3.47
2019-04-29T10:29:44.753Z,2.90
2019-04-29T10:32:46.189Z,3.17
2019-04-29T10:35:40.779Z,2.87
2019-04-29T10:38:33.582Z,3.30
2019-04-29T10:41:44.043Z,3.22
2019-04-29T10:44:54.249Z,3.55
2019-04-29T10:47:58.575Z,6.00
2019-04-29T10:50:54.039Z,5.92
2019-04-29T10:53:46.424Z,3.12
2019-04-29T10:56:39.426Z,3.42
2019-04-29T10:59:35.743Z,4.28
2019-04-29T11:02:55.080Z,2.45
2019-04-29T11:06:00.557Z,2.45
2019-04-29T11:09:05.002Z,4.83
2019-04-29T11:11:59.086Z,5.35
2019-04-29T11:14:52.398Z,3.08
2019-04-29T11:17:46.444Z,3.12
2019-04-29T11:20:38.510Z,3.02
2019-04-29T11:23:56.201Z,4.92
2019-04-29T11:27:11.172Z,3.75
2019-04-29T11:29:53.002Z,4.33
2019-04-29T11:32:53.738Z,2.33
2019-04-29T11:35:59.279Z,4.78
2019-04-29T11:38:51.624Z,3.42
2019-04-29T11:41:40.840Z,3.58
2019-04-29T11:44:46.450Z,3.45
2019-04-29T11:47:39.497Z,2.58
2019-04-29T11:50:54.929Z,2.70
2019-04-29T11:53:45.576Z,2.80
2019-04-29T11:56:40.176Z,4.30
2019-04-29T11:59:59.337Z,4.47
2019-04-29T12:03:03.659Z,3.40
2019-04-29T12:06:01.576Z,4.03
2019-04-29T12:08:55.190Z,2.67
2019-04-29T12:11:47.431Z,4.30
2019-04-29T12:14:54.588Z,4.97
2019-04-29T12:17:51.978Z,5.03
2019-04-29T12:20:50.406Z,5.03
2019-04-29T12:23:43.464Z,3.92
2019-04-29T12:26:43.076Z,5.33
2019-04-29T12:29:29.573Z,3.87
2019-04-29T12:32:30.062Z,2.42
2019-04-29T12:35:51.127Z,3.72
2019-04-29T12:38:49.543Z,4.08
2019-04-29T12:41:52.998Z,2.35
2019-04-29T12:44:57.318Z,2.58
2019-04-29T12:47:51.663Z,4.00
2019-04-29T12:50:44.719Z,3.40
2019-04-29T12:53:37.772Z,5.92
2019-04-29T12:56:31.591Z,2.92
2019-04-29T12:59:21.103Z,2.85
2019-04-29T13:02:31.275Z,3.60
2019-04-29T13:05:35.599Z,2.60
2019-04-29T13:08:39.914Z,4.62
2019-04-29T13:11:45.572Z,3.55
2019-04-29T13:14:28.736Z,5.55
2019-04-29T13:17:26.531Z,2.77
2019-04-29T13:20:20.845Z,2.90
2019-04-29T13:23:19.300Z,2.58
2019-04-29T13:26:08.087Z,2.52
2019-04-29T13:29:01.631Z,2.62
2019-04-29T13:31:53.836Z,2.77
2019-04-29T13:34:49.447Z,3.37
2019-04-29T13:37:42.504Z,3.83
2019-04-29T13:40:37.798Z,3.80
2019-04-29T13:43:35.088Z,4.22
2019-04-29T13:46:34.215Z,3.12
2019-04-29T13:49:38.678Z,4.03
2019-04-29T13:52:32.361Z,5.17
2019-04-29T13:55:47.387Z,5.47
2019-04-29T13:58:22.075Z,4.53
2019-04-29T14:01:32.668Z,4.85
2019-04-29T14:04:24.847Z,3.10
2019-04-29T14:07:18.301Z,2.85
2019-04-29T14:10:10.235Z,5.60
2019-04-29T14:13:10.857Z,5.50
2019-04-29T14:15:55.753Z,2.83
2019-04-29T14:18:50.072Z,4.30
2019-04-29T14:21:43.663Z,3.77
2019-04-29T14:24:35.691Z,5.37
2019-04-29T14:27:32.328Z,3.95
2019-04-29T14:30:37.856Z,2.27
2019-04-29T14:33:19.328Z,4.95
2019-04-29T14:36:15.078Z,2.30
2019-04-29T14:39:13.008Z,2.30
2019-04-29T14:42:05.286Z,2.55
2019-04-29T14:45:07.049Z,3.77
2019-04-29T14:48:26.983Z,3.08
2019-04-29T14:51:21.067Z,2.58
2019-04-29T14:54:13.870Z,2.55
2019-04-29T14:57:09.110Z,2.72
2019-04-29T14:59:59.556Z,3.52
2019-04-29T15:02:55.825Z,4.37
2019-04-29T15:05:45.575Z,4.37
2019-04-29T15:08:38.420Z,2.40
2019-04-29T15:11:32.481Z,3.75
2019-04-29T15:14:49.937Z,2.20
2019-04-29T15:17:56.968Z,2.00
2019-04-29T15:21:01.775Z,2.83
2019-04-29T15:23:53.841Z,2.20
2019-04-29T15:26:47.173Z,2.50
2019-04-29T15:29:39.950Z,2.12
2019-04-29T15:32:41.448Z,2.42
2019-04-29T15:35:34.510Z,3.58
2019-04-29T15:38:27.561Z,3.35
2019-04-29T15:41:21.217Z,2.17
2019-04-29T15:44:20.448Z,2.30
2019-04-29T15:47:08.009Z,3.60
2019-04-29T15:50:11.258Z,2.10
2019-04-29T15:52:54.124Z,1.80
2019-04-29T15:55:47.433Z,2.40
2019-04-29T15:58:41.315Z,2.33
2019-04-29T16:01:34.311Z,1.40
2019-04-29T16:04:32.512Z,1.50
2019-04-29T16:07:39.637Z,1.92
2019-04-29T16:10:51.744Z,1.85
2019-04-29T16:13:48.019Z,1.80
2019-04-29T16:16:36.724Z,1.52
2019-04-29T16:19:29.774Z,1.80
2019-04-29T16:22:22.573Z,2.58
2019-04-29T16:25:15.624Z,1.70
2019-04-29T16:28:08.428Z,1.95
2019-04-29T16:31:04.948Z,1.75
2019-04-29T16:33:55.826Z,1.57
2019-04-29T16:36:49.830Z,1.75
2019-04-29T16:39:32.138Z,1.87
2019-04-29T16:42:36.264Z,1.55
2019-04-29T16:45:29.067Z,1.87
2019-04-29T16:48:22.120Z,2.30
2019-04-29T16:51:16.708Z,1.55
2019-04-29T16:54:12.700Z,1.82
2019-04-29T16:57:01.294Z,1.87
2019-04-29T16:59:54.345Z,2.12
2019-04-29T17:02:47.612Z,2.05
2019-04-29T17:05:41.736Z,2.55
2019-04-29T17:08:35.301Z,1.90
2019-04-29T17:11:39.367Z,2.65
2019-04-29T17:14:32.423Z,2.40
2019-04-29T17:17:29.583Z,2.50
2019-04-29T17:20:21.866Z,2.17
2019-04-29T17:23:12.078Z,2.10
2019-04-29T17:26:20.009Z,2.12
2019-04-29T17:32:44.611Z,1.98
2019-04-29T17:35:17.844Z,2.05
2019-04-29T17:35:31.687Z,2.92
2019-04-29T17:38:24.744Z,2.77
2019-04-29T17:41:18.066Z,2.12
2019-04-29T17:44:38.505Z,2.10
2019-04-29T17:50:53.057Z,2.50
2019-04-29T17:53:49.422Z,2.40
2019-04-29T17:57:25.555Z,2.47
2019-04-29T18:00:15.829Z,2.30
2019-04-29T18:03:18.000Z,2.37
2019-04-29T18:06:26.261Z,2.50
2019-04-29T18:09:27.911Z,2.37
2019-04-29T18:12:40.971Z,2.37
2019-04-29T18:15:42.437Z,1.82
2019-04-29T18:18:27.987Z,2.20
2019-04-29T18:21:32.903Z,2.02
2019-04-29T18:24:45.218Z,2.60
2019-04-29T18:27:38.986Z,2.05
2019-04-29T18:30:35.782Z,2.27
2019-04-29T18:33:29.884Z,2.12
2019-04-29T18:36:26.718Z,1.98
2019-04-29T18:39:20.207Z,2.30
2019-04-29T18:42:08.111Z,2.47
2019-04-29T18:45:02.189Z,1.80
2019-04-29T18:47:51.398Z,2.20
2019-04-29T18:50:44.455Z,1.70
2019-04-29T18:53:37.257Z,1.92
2019-04-29T18:56:32.353Z,1.95
2019-04-29T18:59:32.591Z,2.33
2019-04-29T19:02:17.448Z,2.70
2019-04-29T19:05:32.459Z,2.02
2019-04-29T19:08:23.334Z,1.60
2019-04-29T19:11:12.743Z,1.62
2019-04-29T19:14:06.568Z,1.47
2019-04-29T19:17:01.320Z,1.82
2019-04-29T19:19:48.819Z,1.42
2019-04-29T19:22:44.018Z,1.85
2019-04-29T19:25:31.879Z,2.20
2019-04-29T19:28:31.092Z,1.77
2019-04-29T19:31:18.762Z,1.92
2019-04-29T19:34:14.651Z,2.12
2019-04-29T19:37:05.243Z,2.25
2019-04-29T19:39:59.678Z,2.17
2019-04-29T19:42:52.011Z,2.00
2019-04-29T19:45:49.155Z,2.00
2019-04-29T19:48:41.192Z,1.42
2019-04-29T19:51:35.097Z,1.80
2019-04-29T19:54:28.625Z,2.15
2019-04-29T19:57:15.247Z,2.00
2019-04-29T20:00:09.171Z,1.70
2019-04-29T20:03:17.417Z,1.77
2019-04-29T20:06:08.417Z,1.75
2019-04-29T20:09:01.885Z,1.90
2019-04-29T20:11:53.655Z,1.60
2019-04-29T20:14:46.399Z,1.77
2019-04-29T20:17:52.269Z,2.10
2019-04-29T20:21:07.974Z,1.65
2019-04-29T20:23:53.253Z,1.75
2019-04-29T20:26:46.883Z,1.90
2019-04-29T20:29:38.755Z,2.33
2019-04-29T20:32:32.097Z,2.50
2019-04-29T20:35:32.487Z,1.75
2019-04-29T20:38:25.530Z,2.55
2019-04-29T20:41:40.167Z,2.70
2019-04-29T20:44:30.290Z,2.30
2019-04-29T20:47:23.436Z,2.85
2019-04-29T20:50:14.004Z,2.75
2019-04-29T20:53:30.865Z,2.50
2019-04-29T20:56:25.319Z,3.05
2019-04-29T20:59:16.064Z,2.33
2019-04-29T21:02:13.034Z,3.08
2019-04-29T21:05:07.155Z,2.20
2019-04-29T21:08:03.491Z,3.05
2019-04-29T21:10:55.470Z,2.80
2019-04-29T21:14:08.615Z,3.60
2019-04-29T21:17:07.968Z,3.50
2019-04-29T21:19:56.792Z,3.85
2019-04-29T21:22:52.453Z,2.62
2019-04-29T21:26:08.726Z,2.80
2019-04-29T21:28:53.163Z,2.85
2019-04-29T21:31:46.218Z,3.35
2019-04-29T21:37:55.816Z,3.65
2019-04-29T21:40:55.918Z,2.98
2019-04-29T21:43:53.332Z,3.10
2019-04-29T21:46:39.849Z,3.33
2019-04-29T21:49:43.345Z,3.00
2019-04-29T21:52:26.472Z,3.12
2019-04-29T21:55:20.509Z,2.20
2019-04-29T21:58:12.584Z,2.90
2019-04-29T22:01:05.639Z,3.45
2019-04-29T22:04:02.077Z,2.67
2019-04-29T22:06:51.496Z,3.05
2019-04-29T22:09:47.173Z,3.27
2019-04-29T22:12:37.350Z,2.80
2019-04-29T22:15:32.843Z,4.47
2019-04-29T22:18:19.879Z,3.35
2019-04-29T22:21:17.011Z,3.60
2019-04-29T22:24:06.302Z,3.50
2019-04-29T22:27:04.226Z,3.40
2019-04-29T22:29:51.593Z,4.25
2019-04-29T22:32:40.814Z,3.27
2019-04-29T22:35:39.433Z,3.33
2019-04-29T22:38:27.176Z,3.75
2019-04-29T22:41:21.512Z,3.77
2019-04-29T22:44:15.154Z,3.77
2019-04-29T22:47:05.644Z,3.70
2019-04-29T22:49:54.538Z,4.08
2019-04-29T22:52:56.654Z,4.05
2019-04-29T22:55:47.816Z,4.17
2019-04-29T22:58:43.821Z,3.90
2019-04-29T23:01:35.835Z,4.05
2019-04-29T23:04:26.728Z,4.03
2019-04-29T23:07:23.348Z,3.42
2019-04-29T23:10:26.761Z,4.12
2019-04-29T23:13:13.063Z,3.35
2019-04-29T23:16:06.119Z,3.95
2019-04-29T23:18:59.446Z,3.87
2019-04-29T23:22:10.606Z,4.10
2019-04-29T23:25:17.545Z,4.45
2019-04-29T23:28:18.539Z,4.00
2019-04-29T23:31:11.597Z,3.90
2019-04-29T23:34:05.833Z,4.33
2019-04-29T23:37:06.151Z,4.05
2019-04-29T23:39:59.207Z,4.00
2019-04-29T23:42:49.544Z,3.45
2019-04-29T23:45:42.504Z,3.27
2019-04-29T23:48:38.663Z,1.87
2019-04-29T23:51:27.357Z,2.00
2019-04-29T23:54:17.586Z,2.08
2019-04-29T23:57:23.633Z,2.25
